Maldives Meteorological Service

METAR

Station
VRMM
METAR VRMM 180100Z 24007KT 9999 FEW018 SCT120 BKN280 28/24 Q1010 NOSIG=
VRMH
METAR VRMH 180100Z 20005KT 9000 SCT017TCU BKN270 28/25 Q1010=
VRMK
METAR VRMK 180100Z 24006KT 9999 FEW018TCU 27/24 Q1011=
VRMT
METAR VRMT 180100Z 29008KT 9999 FEW018TCU SCT270 27/24 Q1011=
VRMG
METAR VRMG 180100Z 30007KT 9999 FEW018TCU SCT260 27/24 Q1011 NOSIG=
Last Updated : 2018-11-18 06:00:29

SPECI

Station
VRMM
VRMH
VRMK
VRMT
VRMG
Last Updated : 2018-11-18 06:00:29